Main page
METAR-TAF:

METAR-TAF

Airports :

Guernsey,

Guernsey Airport

latitude: 49-26N, longitude: 002-36W, elevation: 102 m

Current weather observation

The report was made 24 minutes ago, at 06:50 UTC
Wind 12 kt from the West
Temperature 15°C
Humidity 82%
Pressure 1021 hPa
Visibility 10 km or more
Scattered clouds at a height of 1500 ft

METAR: EGJB 190650Z 28012KT 9999 SCT015 15/12 Q1021

Time: 08:14 (07:14 UTC)

Forecast

The report was made 2 hours and 22 minutes ago, at 04:52 UTC
Forecast valid from 19 at 06 UTC to 19 at 15 UTC
Wind 16 kt from the West/Northwest
Visibility 10 km or more
Few clouds at a height of 2000 ft
Probability 30% :
Temporary
from 19 at 06 UTC to 19 at 12 UTC
Broken clouds at a height of 1500 ft
rain showers

TAF: EGJB 190452Z 1906/1915 29016KT 9999 FEW020 PROB30 TEMPO 1906/1912 SHRA BKN015

Weather observations and forecasts of more than 4000 airports (METAR and TAF reports).

The available stations are represented by yellow and red dots on the map.

Hover mouse over dot to see the name of the station.

Then click to see weather observations and forecasts.

To change the map : click on the green buttons with a black cross to zoom in, on the green button with a dash to zoom out, or on the green arrows for adjacent maps.


METAR-TAF: